Search for airport 
image banner adimage banner adimage banner ad
image banner ad

9PS4 - Pheasant Run

Located in Easton-Forks Township, United States

ICAO - 9PS4, IATA -

Data provided by Airmate  

General information

Coordinates: N40°44'58" W75°12'37"
Elevation is 400 feet MSL.
Magnetic variation is -12° East
View others Airports in Pennsylvania

Operational data

Special qualification required
Current time UTC:
Current local time:
Weather at : KABE - Lehigh Valley Intl ( 22 km )
METAR: KABE 091651Z 24010KT 10SM FEW075 BKN090 13/04 A3003 RMK AO2 SLP172 T01280044
TAF: KABE 091120Z 0912/1012 VRB03KT P6SM SCT250 FM091900 15005KT 6SM -RA OVC015 TEMPO 0919/0921 3SM -RA BR OVC010 FM100000 08006KT P6SM VCSH OVC035 FM100600 09005KT P6SM OVC040 WS020/23040KT
View NOTAMs / SUP AIP / TFR affecting this airport [VIEW]
Communications frequencies: [VIEW]

Runways:

Airport contact information

Address: Easton-Forks Township United States

Satellite view of 9PS4